Historique des stations

Station météo de Villegouin

Altitude de la station : 151 m







Données météorologiques pour le 03/03/2021
Date
Heure
Températures Humidité Point de rosée Vitesse
du vent
Direction Rafales Windchill Pression Pluviométrie
Cumul
Date
Heure
Températures Humidité Point de rosée Vitesse
du vent
Direction Rafales Windchill Pression Pluviométrie
Cumul
03/03/2021 21:299.4 °C83 %6.7 °C-S14 km/h9.4 1026 hPa-
03/03/2021 21:149.9 °C81 %6.7 °C-S14 km/h10.0 1026 hPa-
03/03/2021 20:5910.3 °C80 %7.2 °C-S14 km/h10.6 1026 hPa-
03/03/2021 20:4410.3 °C76 %6.1 °C-S14 km/h10.6 1026 hPa-
03/03/2021 20:2910.4 °C77 %6.7 °C-S14 km/h10.6 1027 hPa-
03/03/2021 20:1410.7 °C79 %7.2 °C-S14 km/h10.6 1027 hPa-
03/03/2021 19:5910.9 °C78 %7.2 °C-S14 km/h11.1 1027 hPa-
03/03/2021 19:4411.1 °C77 %7.2 °C-S14 km/h11.1 1027 hPa-
03/03/2021 19:2911.3 °C76 %7.2 °C-S14 km/h11.1 1027 hPa-
03/03/2021 19:1412.1 °C73 %7.2 °C-S14 km/h12.2 1027 hPa-
03/03/2021 18:5913.3 °C66 %7.2 °C-S14 km/h13.3 1027 hPa-
03/03/2021 18:4414.2 °C62 %6.7 °C-S14 km/h14.4 1027 hPa-
03/03/2021 18:2914.9 °C58 %6.7 °C-S14 km/h15.0 1027 hPa-
03/03/2021 18:1415.3 °C59 %7.2 °C-S14 km/h15.6 1026 hPa-
03/03/2021 17:5915.4 °C60 %7.8 °C2 km/hSO14 km/h15.6 1026 hPa-
03/03/2021 17:4415.6 °C59 %7.8 °C-SO14 km/h15.6 1026 hPa-
03/03/2021 17:2916.1 °C57 %7.2 °C-SO14 km/h16.1 1026 hPa-
03/03/2021 17:1416.7 °C55 %7.2 °C5 km/hSO14 km/h16.7 1026 hPa-
03/03/2021 16:5917.0 °C54 %7.8 °C2 km/hSO14 km/h17.2 1027 hPa-
03/03/2021 16:4416.7 °C54 %7.2 °C2 km/hSO14 km/h16.7 1027 hPa-
03/03/2021 16:2917.1 °C53 %7.2 °C2 km/hSO14 km/h17.2 1027 hPa-
03/03/2021 16:1417.6 °C55 %8.3 °C2 km/hSSO14 km/h17.8 1027 hPa-
03/03/2021 15:5917.3 °C55 %8.3 °C2 km/hSSO14 km/h17.2 1027 hPa-
03/03/2021 15:4417.2 °C57 %8.3 °C5 km/hSO14 km/h17.2 1027 hPa-
03/03/2021 15:2917.0 °C54 %7.8 °C3 km/hSO14 km/h17.2 1027 hPa-
03/03/2021 15:1416.8 °C56 %7.8 °C5 km/hOSO14 km/h16.7 1027 hPa-
03/03/2021 14:5916.6 °C56 %7.8 °C3 km/hSE14 km/h16.7 1028 hPa-
03/03/2021 14:4516.2 °C57 %7.8 °C3 km/hSE14 km/h16.1 1028 hPa-
03/03/2021 14:3016.0 °C57 %7.2 °C5 km/hSO14 km/h16.1 1028 hPa-
03/03/2021 14:1515.8 °C59 %7.8 °C2 km/hSSE14 km/h15.6 1028 hPa-
03/03/2021 14:0015.4 °C60 %7.8 °C2 km/hSE14 km/h15.6 1028 hPa-
03/03/2021 13:4515.3 °C61 %7.8 °C8 km/hOSO13 km/h15.6 1028 hPa-
03/03/2021 13:3015.0 °C63 %7.8 °C3 km/hO13 km/h15.0 1028 hPa-
03/03/2021 13:1514.6 °C63 %7.8 °C3 km/hSO11 km/h14.4 1029 hPa-
03/03/2021 13:0014.1 °C62 %6.7 °C5 km/hSO11 km/h13.9 1029 hPa-
03/03/2021 12:4514.0 °C59 %6.1 °C3 km/hO11 km/h13.9 1029 hPa-
03/03/2021 12:3013.6 °C59 %5.6 °C6 km/hOSO11 km/h13.3 1029 hPa-
03/03/2021 12:1413.1 °C59 %5.0 °C3 km/hO11 km/h13.3 1029 hPa-
03/03/2021 11:5912.6 °C54 %3.3 °C3 km/hSO10 km/h12.8 1030 hPa-
03/03/2021 11:4412.6 °C54 %3.3 °C5 km/hSO10 km/h12.8 1030 hPa-
03/03/2021 11:2912.3 °C54 %3.3 °C5 km/hSSO10 km/h12.2 1030 hPa-
03/03/2021 11:1411.9 °C58 %3.9 °C3 km/hSSE6 km/h12.2 1030 hPa-
03/03/2021 10:5911.4 °C63 %4.4 °C2 km/hSSO6 km/h11.7 1030 hPa-
03/03/2021 10:4411.2 °C61 %3.9 °C2 km/hS6 km/h11.1 1030 hPa-
03/03/2021 10:2911.1 °C61 %3.9 °C2 km/hSO6 km/h11.1 1030 hPa-
03/03/2021 10:1410.0 °C66 %3.9 °C2 km/hSO6 km/h10.0 1030 hPa-
03/03/2021 09:598.5 °C84 %6.1 °C-SSE3 km/h8.3 1030 hPa-
03/03/2021 09:446.7 °C90 %5.0 °C-SSE3 km/h6.7 1030 hPa-
03/03/2021 09:305.4 °C96 %5.0 °C-SSE3 km/h5.6 1030 hPa-
03/03/2021 09:153.9 °C96 %3.3 °C-SSE3 km/h3.9 1030 hPa-
03/03/2021 09:002.4 °C96 %1.7 °C-SSE3 km/h2.2 1030 hPa-
03/03/2021 08:451.5 °C95 %1.1 °C-SSE3 km/h1.7 1030 hPa-
03/03/2021 08:301.1 °C95 %0.6 °C-SSE3 km/h1.1 1030 hPa-
03/03/2021 08:150.8 °C94 %0.0 °C-SSE3 km/h1.1 1030 hPa-
03/03/2021 08:000.7 °C94 %0.0 °C-SSE3 km/h0.6 1030 hPa-
03/03/2021 07:450.6 °C94 %0.0 °C-SSE3 km/h0.6 1029 hPa-
03/03/2021 07:300.6 °C94 %0.0 °C-SSE3 km/h0.6 1029 hPa-
03/03/2021 07:150.8 °C94 %0.0 °C-SSE3 km/h0.6 1029 hPa-
03/03/2021 07:000.9 °C94 %0.0 °C-SSE3 km/h1.1 1029 hPa-
03/03/2021 06:450.8 °C93 %0.0 °C-SSE3 km/h1.1 1029 hPa-
03/03/2021 06:300.9 °C93 %0.0 °C-SSE3 km/h1.1 1029 hPa-
03/03/2021 06:151.2 °C93 %0.0 °C-SSE3 km/h1.1 1029 hPa-
03/03/2021 06:001.2 °C93 %0.0 °C-SSE3 km/h1.1 1029 hPa-
03/03/2021 05:451.3 °C93 %0.6 °C-SSE3 km/h1.1 1029 hPa-
03/03/2021 05:301.4 °C93 %0.6 °C-SSE3 km/h1.7 1029 hPa-
03/03/2021 05:151.5 °C93 %0.6 °C-SSE3 km/h1.7 1029 hPa-
03/03/2021 04:591.8 °C93 %1.1 °C-SSE3 km/h1.7 1029 hPa-
03/03/2021 04:451.9 °C93 %1.1 °C-SSE3 km/h1.7 1029 hPa-
03/03/2021 04:291.8 °C92 %0.6 °C-SSE3 km/h1.7 1029 hPa-
03/03/2021 04:142.1 °C93 %1.1 °C-SSE3 km/h2.2 1029 hPa-
03/03/2021 03:592.2 °C93 %1.1 °C-SSE3 km/h2.2 1029 hPa-
03/03/2021 03:442.4 °C93 %1.7 °C-SSE3 km/h2.2 1029 hPa-
03/03/2021 03:292.4 °C93 %1.7 °C-SSE3 km/h2.2 1029 hPa-
03/03/2021 03:142.5 °C92 %1.1 °C-SSE3 km/h2.8 1029 hPa-
03/03/2021 02:592.6 °C92 %1.7 °C-SSE3 km/h2.8 1029 hPa-
03/03/2021 02:442.7 °C92 %1.7 °C---2.8 1029 hPa-
03/03/2021 02:292.9 °C92 %1.7 °C---2.8 1029 hPa-
03/03/2021 02:143.1 °C91 %1.7 °C---3.3 1029 hPa-
03/03/2021 01:593.2 °C91 %2.2 °C---3.3 1029 hPa-
03/03/2021 01:443.3 °C91 %2.2 °C---3.3 1029 hPa-
03/03/2021 01:293.6 °C91 %2.2 °C---3.3 1029 hPa-
03/03/2021 01:143.7 °C90 %2.2 °C---3.9 1029 hPa-
03/03/2021 00:593.9 °C90 %2.8 °C---3.9 1029 hPa-
03/03/2021 00:444.1 °C90 %2.8 °C---3.9 1029 hPa-
03/03/2021 00:294.2 °C88 %2.2 °C---4.4 1029 hPa-
03/03/2021 00:144.5 °C88 %2.8 °C---4.4 1029 hPa-


Minima :

Température : 0.6 °C
Humidité : 53 %
Point de rosée : 0.0 °C
Vent moyen : 2 km/h
Windchill : 0.6
Pression atm. : 1026 hPa
Maxima :

Température : 17.6 °C
Humidité : 96 %
Point de rosée : 8.3 °C
Vent moyen : 8 km/h
Windchill : 17.8
Pression atm. : 1030 hPa
Rafales max : 14 km/h
Cumul de pluie sur 24H : 0 mm

Villegouin est une commune du département Indre (36).
La station météorologique du réseau de l'association la plus proche de Villegouin est celle de Levroux



Icône Facebook Association Météo Centre Icône Twitter Association Météo Centre Icône Chaîne Youtube Association Météo Centre Icône contact Association Météo Centre Icône Insta Association Météo Centre